Terminal Aerodrome Forecast
Issued by NWS

Home | Current Version | Previous Version | Text Only | Print | Product List | Glossary On
Versions: 1 2 3 4 5 6 7 8 9 10 11 12 13 14 15 16 17 18 19 20 21 22 23 24 25 26 27 28 29 30 31 32
000
FTUS46 KPDT 260520
TAFYKM
TAF
KYKM 260520Z 2606/2706 VRB05KT P6SM OVC250
     FM261500 31007G13KT P6SM SCT120 OVC200
     FM261800 31012G22KT P6SM SCT100 BKN150
     FM270300 28007G13KT P6SM SCT200=

USA.gov is the U.S. government's official web portal to all federal, state and local government web resources and services.